sensor_id;sensor_type;location;lat;lon;timestamp;temperature;humidity
9984;DHT22;16737;50.932;6.780;2022-07-19T00:00:37;25.90;48.30
9984;DHT22;16737;50.932;6.780;2022-07-19T00:03:04;25.80;48.30
9984;DHT22;16737;50.932;6.780;2022-07-19T00:05:31;25.80;48.40
9984;DHT22;16737;50.932;6.780;2022-07-19T00:07:58;25.80;48.40
9984;DHT22;16737;50.932;6.780;2022-07-19T00:10:26;25.70;48.40
9984;DHT22;16737;50.932;6.780;2022-07-19T00:12:53;25.70;48.80
9984;DHT22;16737;50.932;6.780;2022-07-19T00:15:20;25.60;48.80
9984;DHT22;16737;50.932;6.780;2022-07-19T00:17:48;25.60;48.90
9984;DHT22;16737;50.932;6.780;2022-07-19T00:20:18;25.50;49.00
9984;DHT22;16737;50.932;6.780;2022-07-19T00:22:47;25.50;49.00
9984;DHT22;16737;50.932;6.780;2022-07-19T00:25:14;25.40;49.00
9984;DHT22;16737;50.932;6.780;2022-07-19T00:27:43;25.40;49.20
9984;DHT22;16737;50.932;6.780;2022-07-19T00:30:11;25.30;49.50
9984;DHT22;16737;50.932;6.780;2022-07-19T00:32:38;25.30;49.60
9984;DHT22;16737;50.932;6.780;2022-07-19T00:35:06;25.30;49.80
9984;DHT22;16737;50.932;6.780;2022-07-19T00:37:33;25.20;49.70
9984;DHT22;16737;50.932;6.780;2022-07-19T00:40:01;25.20;49.70
9984;DHT22;16737;50.932;6.780;2022-07-19T00:42:28;25.10;49.90
9984;DHT22;16737;50.932;6.780;2022-07-19T00:44:56;25.10;49.90
9984;DHT22;16737;50.932;6.780;2022-07-19T00:47:23;25.00;50.00
9984;DHT22;16737;50.932;6.780;2022-07-19T00:49:51;24.90;50.70
9984;DHT22;16737;50.932;6.780;2022-07-19T00:52:19;24.90;50.30
9984;DHT22;16737;50.932;6.780;2022-07-19T00:54:48;24.90;50.50
9984;DHT22;16737;50.932;6.780;2022-07-19T00:57:19;24.80;50.70
9984;DHT22;16737;50.932;6.780;2022-07-19T00:59:47;24.70;50.60
9984;DHT22;16737;50.932;6.780;2022-07-19T01:02:18;24.70;50.80
9984;DHT22;16737;50.932;6.780;2022-07-19T01:04:46;24.60;50.90
9984;DHT22;16737;50.932;6.780;2022-07-19T01:07:13;24.60;51.00
9984;DHT22;16737;50.932;6.780;2022-07-19T01:09:40;24.50;51.20
9984;DHT22;16737;50.932;6.780;2022-07-19T01:12:08;24.50;51.30
9984;DHT22;16737;50.932;6.780;2022-07-19T01:14:36;24.50;51.50
9984;DHT22;16737;50.932;6.780;2022-07-19T01:17:03;24.40;51.40
9984;DHT22;16737;50.932;6.780;2022-07-19T01:19:33;24.30;51.60
9984;DHT22;16737;50.932;6.780;2022-07-19T01:22:01;24.30;51.90
9984;DHT22;16737;50.932;6.780;2022-07-19T01:24:28;24.30;52.00
9984;DHT22;16737;50.932;6.780;2022-07-19T01:26:55;24.20;51.90
9984;DHT22;16737;50.932;6.780;2022-07-19T01:29:23;24.10;51.90
9984;DHT22;16737;50.932;6.780;2022-07-19T01:31:50;24.10;52.00
9984;DHT22;16737;50.932;6.780;2022-07-19T01:34:17;24.00;52.00
9984;DHT22;16737;50.932;6.780;2022-07-19T01:36:44;24.00;52.10
9984;DHT22;16737;50.932;6.780;2022-07-19T01:39:13;23.90;52.10
9984;DHT22;16737;50.932;6.780;2022-07-19T01:41:40;23.90;52.30
9984;DHT22;16737;50.932;6.780;2022-07-19T01:44:07;23.80;52.20
9984;DHT22;16737;50.932;6.780;2022-07-19T01:46:34;23.80;52.40
9984;DHT22;16737;50.932;6.780;2022-07-19T01:49:01;23.70;52.40
9984;DHT22;16737;50.932;6.780;2022-07-19T01:51:28;23.70;52.50
9984;DHT22;16737;50.932;6.780;2022-07-19T01:53:55;23.70;52.70
9984;DHT22;16737;50.932;6.780;2022-07-19T01:56:24;23.60;52.70
9984;DHT22;16737;50.932;6.780;2022-07-19T01:58:51;23.60;52.90
9984;DHT22;16737;50.932;6.780;2022-07-19T02:01:18;23.60;52.90
9984;DHT22;16737;50.932;6.780;2022-07-19T02:03:45;23.50;53.10
9984;DHT22;16737;50.932;6.780;2022-07-19T02:06:12;23.50;53.20
9984;DHT22;16737;50.932;6.780;2022-07-19T02:08:39;23.50;53.40
9984;DHT22;16737;50.932;6.780;2022-07-19T02:11:07;23.40;53.30
9984;DHT22;16737;50.932;6.780;2022-07-19T02:13:52;23.40;53.30
9984;DHT22;16737;50.932;6.780;2022-07-19T02:16:19;23.30;53.40
9984;DHT22;16737;50.932;6.780;2022-07-19T02:18:46;23.30;53.40
9984;DHT22;16737;50.932;6.780;2022-07-19T02:21:13;23.20;53.40
9984;DHT22;16737;50.932;6.780;2022-07-19T02:23:40;23.20;53.60
9984;DHT22;16737;50.932;6.780;2022-07-19T02:26:07;23.20;53.70
9984;DHT22;16737;50.932;6.780;2022-07-19T02:28:34;23.20;53.70
9984;DHT22;16737;50.932;6.780;2022-07-19T02:31:03;23.10;53.80
9984;DHT22;16737;50.932;6.780;2022-07-19T02:33:30;23.10;54.10
9984;DHT22;16737;50.932;6.780;2022-07-19T02:35:58;23.10;54.10
9984;DHT22;16737;50.932;6.780;2022-07-19T02:38:25;23.10;54.20
9984;DHT22;16737;50.932;6.780;2022-07-19T02:40:52;23.00;54.30
9984;DHT22;16737;50.932;6.780;2022-07-19T02:43:19;23.00;54.40
9984;DHT22;16737;50.932;6.780;2022-07-19T02:45:46;23.00;54.60
9984;DHT22;16737;50.932;6.780;2022-07-19T02:48:14;23.00;54.80
9984;DHT22;16737;50.932;6.780;2022-07-19T02:50:42;23.00;55.10
9984;DHT22;16737;50.932;6.780;2022-07-19T02:53:09;23.00;55.70
9984;DHT22;16737;50.932;6.780;2022-07-19T02:55:36;23.00;55.10
9984;DHT22;16737;50.932;6.780;2022-07-19T02:58:04;23.00;55.30
9984;DHT22;16737;50.932;6.780;2022-07-19T03:00:31;23.00;55.30
9984;DHT22;16737;50.932;6.780;2022-07-19T03:02:59;22.90;55.40
9984;DHT22;16737;50.932;6.780;2022-07-19T03:05:43;22.90;55.50
9984;DHT22;16737;50.932;6.780;2022-07-19T03:08:11;22.90;55.50
9984;DHT22;16737;50.932;6.780;2022-07-19T03:10:38;22.90;55.50
9984;DHT22;16737;50.932;6.780;2022-07-19T03:13:05;22.90;55.60
9984;DHT22;16737;50.932;6.780;2022-07-19T03:15:32;22.90;55.70
9984;DHT22;16737;50.932;6.780;2022-07-19T03:17:59;22.90;55.90
9984;DHT22;16737;50.932;6.780;2022-07-19T03:20:26;22.80;55.80
9984;DHT22;16737;50.932;6.780;2022-07-19T03:22:55;22.80;55.90
9984;DHT22;16737;50.932;6.780;2022-07-19T03:25:22;22.80;56.20
9984;DHT22;16737;50.932;6.780;2022-07-19T03:27:49;22.70;56.10
9984;DHT22;16737;50.932;6.780;2022-07-19T03:30:16;22.70;56.10
9984;DHT22;16737;50.932;6.780;2022-07-19T03:32:43;22.60;56.20
9984;DHT22;16737;50.932;6.780;2022-07-19T03:35:10;22.60;56.30
9984;DHT22;16737;50.932;6.780;2022-07-19T03:37:37;22.60;56.50
9984;DHT22;16737;50.932;6.780;2022-07-19T03:40:07;22.50;56.50
9984;DHT22;16737;50.932;6.780;2022-07-19T03:42:35;22.50;56.90
9984;DHT22;16737;50.932;6.780;2022-07-19T03:45:03;22.40;56.70
9984;DHT22;16737;50.932;6.780;2022-07-19T03:47:31;22.40;56.80
9984;DHT22;16737;50.932;6.780;2022-07-19T03:49:58;22.30;56.80
9984;DHT22;16737;50.932;6.780;2022-07-19T03:52:25;22.30;57.00
9984;DHT22;16737;50.932;6.780;2022-07-19T03:54:52;22.30;57.10
9984;DHT22;16737;50.932;6.780;2022-07-19T03:57:21;22.20;57.20
9984;DHT22;16737;50.932;6.780;2022-07-19T03:59:48;22.20;57.50
9984;DHT22;16737;50.932;6.780;2022-07-19T04:02:15;22.10;57.40
9984;DHT22;16737;50.932;6.780;2022-07-19T04:04:43;22.10;57.50
9984;DHT22;16737;50.932;6.780;2022-07-19T04:07:10;22.10;57.60
9984;DHT22;16737;50.932;6.780;2022-07-19T04:09:37;22.10;57.70
9984;DHT22;16737;50.932;6.780;2022-07-19T04:12:04;22.10;57.90
9984;DHT22;16737;50.932;6.780;2022-07-19T04:14:33;22.00;58.00
9984;DHT22;16737;50.932;6.780;2022-07-19T04:17:01;22.00;58.20
9984;DHT22;16737;50.932;6.780;2022-07-19T04:19:29;22.00;58.10
9984;DHT22;16737;50.932;6.780;2022-07-19T04:21:57;22.00;58.20
9984;DHT22;16737;50.932;6.780;2022-07-19T04:24:24;22.00;58.40
9984;DHT22;16737;50.932;6.780;2022-07-19T04:26:51;21.90;58.50
9984;DHT22;16737;50.932;6.780;2022-07-19T04:29:18;21.90;58.60
9984;DHT22;16737;50.932;6.780;2022-07-19T04:31:46;21.90;58.70
9984;DHT22;16737;50.932;6.780;2022-07-19T04:34:13;21.80;58.90
9984;DHT22;16737;50.932;6.780;2022-07-19T04:36:40;21.80;59.00
9984;DHT22;16737;50.932;6.780;2022-07-19T04:39:07;21.80;59.10
9984;DHT22;16737;50.932;6.780;2022-07-19T04:41:35;21.70;59.10
9984;DHT22;16737;50.932;6.780;2022-07-19T04:44:02;21.70;59.30
9984;DHT22;16737;50.932;6.780;2022-07-19T04:46:29;21.70;59.50
9984;DHT22;16737;50.932;6.780;2022-07-19T04:48:58;21.70;59.70
9984;DHT22;16737;50.932;6.780;2022-07-19T04:51:25;21.70;60.10
9984;DHT22;16737;50.932;6.780;2022-07-19T04:53:52;21.70;61.00
9984;DHT22;16737;50.932;6.780;2022-07-19T04:56:25;21.70;60.20
9984;DHT22;16737;50.932;6.780;2022-07-19T04:58:53;21.70;60.40
9984;DHT22;16737;50.932;6.780;2022-07-19T05:01:22;21.70;60.70
9984;DHT22;16737;50.932;6.780;2022-07-19T05:03:49;21.80;61.00
9984;DHT22;16737;50.932;6.780;2022-07-19T05:06:18;21.80;61.10
9984;DHT22;16737;50.932;6.780;2022-07-19T05:08:45;21.80;61.50
9984;DHT22;16737;50.932;6.780;2022-07-19T05:11:13;21.90;61.20
9984;DHT22;16737;50.932;6.780;2022-07-19T05:13:40;21.90;61.30
9984;DHT22;16737;50.932;6.780;2022-07-19T05:16:07;21.90;61.60
9984;DHT22;16737;50.932;6.780;2022-07-19T05:18:34;22.00;62.10
9984;DHT22;16737;50.932;6.780;2022-07-19T05:21:01;22.00;62.30
9984;DHT22;16737;50.932;6.780;2022-07-19T05:23:30;22.10;62.40
9984;DHT22;16737;50.932;6.780;2022-07-19T05:25:57;22.10;62.50
9984;DHT22;16737;50.932;6.780;2022-07-19T05:28:24;22.10;62.70
9984;DHT22;16737;50.932;6.780;2022-07-19T05:30:51;22.20;63.00
9984;DHT22;16737;50.932;6.780;2022-07-19T05:33:18;22.30;63.20
9984;DHT22;16737;50.932;6.780;2022-07-19T05:35:45;22.30;63.50
9984;DHT22;16737;50.932;6.780;2022-07-19T05:38:12;22.40;63.80
9984;DHT22;16737;50.932;6.780;2022-07-19T05:40:41;22.40;63.90
9984;DHT22;16737;50.932;6.780;2022-07-19T05:43:08;22.50;64.30
9984;DHT22;16737;50.932;6.780;2022-07-19T05:45:35;22.50;64.30
9984;DHT22;16737;50.932;6.780;2022-07-19T05:48:02;22.60;64.40
9984;DHT22;16737;50.932;6.780;2022-07-19T05:50:30;22.60;64.30
9984;DHT22;16737;50.932;6.780;2022-07-19T05:52:57;22.70;64.30
9984;DHT22;16737;50.932;6.780;2022-07-19T05:55:24;22.80;64.60
9984;DHT22;16737;50.932;6.780;2022-07-19T05:57:52;22.80;64.40
9984;DHT22;16737;50.932;6.780;2022-07-19T06:00:19;22.90;64.60
9984;DHT22;16737;50.932;6.780;2022-07-19T06:02:46;22.90;64.70
9984;DHT22;16737;50.932;6.780;2022-07-19T06:05:13;23.00;64.60
9984;DHT22;16737;50.932;6.780;2022-07-19T06:07:40;23.00;64.70
9984;DHT22;16737;50.932;6.780;2022-07-19T06:10:08;23.10;65.20
9984;DHT22;16737;50.932;6.780;2022-07-19T06:12:36;23.20;65.70
9984;DHT22;16737;50.932;6.780;2022-07-19T06:15:05;23.30;65.70
9984;DHT22;16737;50.932;6.780;2022-07-19T06:17:33;23.30;65.60
9984;DHT22;16737;50.932;6.780;2022-07-19T06:20:00;23.40;65.40
9984;DHT22;16737;50.932;6.780;2022-07-19T06:22:29;23.50;65.30
9984;DHT22;16737;50.932;6.780;2022-07-19T06:24:57;23.60;65.50
9984;DHT22;16737;50.932;6.780;2022-07-19T06:27:27;23.60;65.60
9984;DHT22;16737;50.932;6.780;2022-07-19T06:29:54;23.70;66.10
9984;DHT22;16737;50.932;6.780;2022-07-19T06:32:22;23.80;66.20
9984;DHT22;16737;50.932;6.780;2022-07-19T06:34:49;23.90;66.70
9984;DHT22;16737;50.932;6.780;2022-07-19T06:37:16;24.00;66.60
9984;DHT22;16737;50.932;6.780;2022-07-19T06:39:43;24.10;66.40
9984;DHT22;16737;50.932;6.780;2022-07-19T06:42:10;24.10;66.40
9984;DHT22;16737;50.932;6.780;2022-07-19T06:44:37;24.30;66.40
9984;DHT22;16737;50.932;6.780;2022-07-19T06:47:04;24.30;66.40
9984;DHT22;16737;50.932;6.780;2022-07-19T06:49:32;24.40;66.40
9984;DHT22;16737;50.932;6.780;2022-07-19T06:51:59;24.50;66.40
9984;DHT22;16737;50.932;6.780;2022-07-19T06:54:27;24.60;66.60
9984;DHT22;16737;50.932;6.780;2022-07-19T06:56:55;24.70;66.70
9984;DHT22;16737;50.932;6.780;2022-07-19T06:59:22;24.80;67.00
9984;DHT22;16737;50.932;6.780;2022-07-19T07:01:49;24.90;66.70
9984;DHT22;16737;50.932;6.780;2022-07-19T07:04:16;25.00;66.70
9984;DHT22;16737;50.932;6.780;2022-07-19T07:06:44;25.20;66.60
9984;DHT22;16737;50.932;6.780;2022-07-19T07:09:11;25.30;67.00
9984;DHT22;16737;50.932;6.780;2022-07-19T07:11:38;25.40;66.60
9984;DHT22;16737;50.932;6.780;2022-07-19T07:14:05;25.50;67.60
9984;DHT22;16737;50.932;6.780;2022-07-19T07:16:32;25.60;67.00
9984;DHT22;16737;50.932;6.780;2022-07-19T07:18:59;25.70;66.60
9984;DHT22;16737;50.932;6.780;2022-07-19T07:21:26;25.90;67.30
9984;DHT22;16737;50.932;6.780;2022-07-19T07:23:56;26.00;66.90
9984;DHT22;16737;50.932;6.780;2022-07-19T07:26:23;26.10;66.80
9984;DHT22;16737;50.932;6.780;2022-07-19T07:28:50;26.20;67.00
9984;DHT22;16737;50.932;6.780;2022-07-19T07:31:17;26.40;66.60
9984;DHT22;16737;50.932;6.780;2022-07-19T07:33:44;26.50;67.00
9984;DHT22;16737;50.932;6.780;2022-07-19T07:36:12;26.60;65.90
9984;DHT22;16737;50.932;6.780;2022-07-19T07:38:39;26.70;66.30
9984;DHT22;16737;50.932;6.780;2022-07-19T07:41:07;26.90;66.00
9984;DHT22;16737;50.932;6.780;2022-07-19T07:43:36;27.00;65.50
9984;DHT22;16737;50.932;6.780;2022-07-19T07:46:03;27.10;66.00
9984;DHT22;16737;50.932;6.780;2022-07-19T07:48:30;27.30;65.80
9984;DHT22;16737;50.932;6.780;2022-07-19T07:50:57;27.40;65.40
9984;DHT22;16737;50.932;6.780;2022-07-19T07:53:24;27.50;65.10
9984;DHT22;16737;50.932;6.780;2022-07-19T07:55:51;27.70;65.00
9984;DHT22;16737;50.932;6.780;2022-07-19T07:58:19;27.80;65.20
9984;DHT22;16737;50.932;6.780;2022-07-19T08:00:46;27.90;64.40
9984;DHT22;16737;50.932;6.780;2022-07-19T08:03:13;28.10;64.30
9984;DHT22;16737;50.932;6.780;2022-07-19T08:05:42;28.20;64.20
9984;DHT22;16737;50.932;6.780;2022-07-19T08:08:12;28.40;64.10
9984;DHT22;16737;50.932;6.780;2022-07-19T08:10:39;28.50;64.30
9984;DHT22;16737;50.932;6.780;2022-07-19T08:13:06;28.60;65.00
9984;DHT22;16737;50.932;6.780;2022-07-19T08:15:36;28.80;63.90
9984;DHT22;16737;50.932;6.780;2022-07-19T08:18:04;28.90;63.60
9984;DHT22;16737;50.932;6.780;2022-07-19T08:20:31;29.10;63.50
9984;DHT22;16737;50.932;6.780;2022-07-19T08:22:58;29.20;63.10
9984;DHT22;16737;50.932;6.780;2022-07-19T08:25:25;29.40;63.30
9984;DHT22;16737;50.932;6.780;2022-07-19T08:27:52;29.50;62.50
9984;DHT22;16737;50.932;6.780;2022-07-19T08:30:19;29.70;63.50
9984;DHT22;16737;50.932;6.780;2022-07-19T08:32:48;29.80;63.20
9984;DHT22;16737;50.932;6.780;2022-07-19T08:35:15;30.00;61.80
9984;DHT22;16737;50.932;6.780;2022-07-19T08:37:42;30.10;61.70
9984;DHT22;16737;50.932;6.780;2022-07-19T08:40:10;30.30;62.00
9984;DHT22;16737;50.932;6.780;2022-07-19T08:42:37;30.40;61.50
9984;DHT22;16737;50.932;6.780;2022-07-19T08:45:06;30.60;61.20
9984;DHT22;16737;50.932;6.780;2022-07-19T08:47:35;30.70;60.90
9984;DHT22;16737;50.932;6.780;2022-07-19T08:50:06;30.90;59.80
9984;DHT22;16737;50.932;6.780;2022-07-19T08:52:37;31.00;59.50
9984;DHT22;16737;50.932;6.780;2022-07-19T08:55:05;31.10;59.90
9984;DHT22;16737;50.932;6.780;2022-07-19T08:57:33;31.30;59.80
9984;DHT22;16737;50.932;6.780;2022-07-19T09:00:17;31.40;60.10
9984;DHT22;16737;50.932;6.780;2022-07-19T09:02:52;31.60;59.90
9984;DHT22;16737;50.932;6.780;2022-07-19T09:05:21;31.80;58.00
9984;DHT22;16737;50.932;6.780;2022-07-19T09:08:06;31.90;58.50
9984;DHT22;16737;50.932;6.780;2022-07-19T09:10:36;32.10;57.40
9984;DHT22;16737;50.932;6.780;2022-07-19T09:13:07;32.20;57.70
9984;DHT22;16737;50.932;6.780;2022-07-19T09:15:46;32.40;58.00
9984;DHT22;16737;50.932;6.780;2022-07-19T09:18:18;32.50;57.40
9984;DHT22;16737;50.932;6.780;2022-07-19T09:20:50;32.70;57.10
9984;DHT22;16737;50.932;6.780;2022-07-19T09:23:19;32.80;57.10
9984;DHT22;16737;50.932;6.780;2022-07-19T09:25:48;33.00;56.30
9984;DHT22;16737;50.932;6.780;2022-07-19T09:28:16;33.10;56.30
9984;DHT22;16737;50.932;6.780;2022-07-19T09:30:46;33.30;56.10
9984;DHT22;16737;50.932;6.780;2022-07-19T09:33:16;33.40;55.40
9984;DHT22;16737;50.932;6.780;2022-07-19T09:35:46;33.50;55.50
9984;DHT22;16737;50.932;6.780;2022-07-19T09:38:22;33.70;55.20
9984;DHT22;16737;50.932;6.780;2022-07-19T09:40:52;33.80;54.40
9984;DHT22;16737;50.932;6.780;2022-07-19T09:43:21;33.90;54.50
9984;DHT22;16737;50.932;6.780;2022-07-19T09:45:51;34.10;53.70
9984;DHT22;16737;50.932;6.780;2022-07-19T09:48:18;34.20;53.60
9984;DHT22;16737;50.932;6.780;2022-07-19T09:50:46;34.40;52.90
9984;DHT22;16737;50.932;6.780;2022-07-19T09:53:18;34.50;52.60
9984;DHT22;16737;50.932;6.780;2022-07-19T09:55:48;34.60;51.70
9984;DHT22;16737;50.932;6.780;2022-07-19T09:58:17;34.70;51.80
9984;DHT22;16737;50.932;6.780;2022-07-19T10:00:45;34.80;51.20
9984;DHT22;16737;50.932;6.780;2022-07-19T10:03:14;34.90;51.00
9984;DHT22;16737;50.932;6.780;2022-07-19T10:05:42;35.00;50.90
9984;DHT22;16737;50.932;6.780;2022-07-19T10:08:10;35.10;50.50
9984;DHT22;16737;50.932;6.780;2022-07-19T10:10:39;35.30;50.20
9984;DHT22;16737;50.932;6.780;2022-07-19T10:13:06;35.40;49.50
9984;DHT22;16737;50.932;6.780;2022-07-19T10:15:37;35.40;49.10
9984;DHT22;16737;50.932;6.780;2022-07-19T10:18:11;35.60;48.70
9984;DHT22;16737;50.932;6.780;2022-07-19T10:20:43;35.70;49.10
9984;DHT22;16737;50.932;6.780;2022-07-19T10:23:13;35.80;48.10
9984;DHT22;16737;50.932;6.780;2022-07-19T10:25:43;35.90;48.60
9984;DHT22;16737;50.932;6.780;2022-07-19T10:28:31;36.00;47.60
9984;DHT22;16737;50.932;6.780;2022-07-19T10:31:00;36.10;46.20
9984;DHT22;16737;50.932;6.780;2022-07-19T10:33:32;36.20;47.00
9984;DHT22;16737;50.932;6.780;2022-07-19T10:36:36;36.30;46.00
9984;DHT22;16737;50.932;6.780;2022-07-19T10:39:28;36.40;46.20
9984;DHT22;16737;50.932;6.780;2022-07-19T10:42:12;36.60;45.60
9984;DHT22;16737;50.932;6.780;2022-07-19T10:45:09;36.70;45.80
9984;DHT22;16737;50.932;6.780;2022-07-19T10:48:01;36.80;45.50
9984;DHT22;16737;50.932;6.780;2022-07-19T10:50:43;36.90;44.60
9984;DHT22;16737;50.932;6.780;2022-07-19T10:53:57;37.00;45.20
9984;DHT22;16737;50.932;6.780;2022-07-19T10:56:54;37.10;44.80
9984;DHT22;16737;50.932;6.780;2022-07-19T10:59:42;37.20;44.60
9984;DHT22;16737;50.932;6.780;2022-07-19T11:02:22;37.30;43.90
9984;DHT22;16737;50.932;6.780;2022-07-19T11:04:50;37.30;43.60
9984;DHT22;16737;50.932;6.780;2022-07-19T11:07:20;37.40;44.60
9984;DHT22;16737;50.932;6.780;2022-07-19T11:09:54;37.50;43.30
9984;DHT22;16737;50.932;6.780;2022-07-19T11:12:28;37.50;42.90
9984;DHT22;16737;50.932;6.780;2022-07-19T11:15:00;37.60;41.90
9984;DHT22;16737;50.932;6.780;2022-07-19T11:17:30;37.60;41.90
9984;DHT22;16737;50.932;6.780;2022-07-19T11:19:59;37.70;43.00
9984;DHT22;16737;50.932;6.780;2022-07-19T11:22:38;37.80;41.80
9984;DHT22;16737;50.932;6.780;2022-07-19T11:25:08;37.80;41.30
9984;DHT22;16737;50.932;6.780;2022-07-19T11:27:40;37.80;41.70
9984;DHT22;16737;50.932;6.780;2022-07-19T11:30:11;37.90;40.60
9984;DHT22;16737;50.932;6.780;2022-07-19T11:32:40;37.90;41.00
9984;DHT22;16737;50.932;6.780;2022-07-19T11:35:10;38.00;40.80
9984;DHT22;16737;50.932;6.780;2022-07-19T11:37:41;38.10;40.70
9984;DHT22;16737;50.932;6.780;2022-07-19T11:40:10;38.10;40.40
9984;DHT22;16737;50.932;6.780;2022-07-19T11:42:40;38.20;40.20
9984;DHT22;16737;50.932;6.780;2022-07-19T11:45:12;38.20;40.00
9984;DHT22;16737;50.932;6.780;2022-07-19T11:47:41;38.20;39.20
9984;DHT22;16737;50.932;6.780;2022-07-19T11:50:11;38.30;39.80
9984;DHT22;16737;50.932;6.780;2022-07-19T11:52:44;38.40;39.40
9984;DHT22;16737;50.932;6.780;2022-07-19T11:55:13;38.40;38.30
9984;DHT22;16737;50.932;6.780;2022-07-19T11:57:40;38.40;38.60
9984;DHT22;16737;50.932;6.780;2022-07-19T12:00:10;38.40;39.40
9984;DHT22;16737;50.932;6.780;2022-07-19T12:03:05;38.50;39.30
9984;DHT22;16737;50.932;6.780;2022-07-19T12:05:36;38.50;38.40
9984;DHT22;16737;50.932;6.780;2022-07-19T12:08:06;38.60;38.80
9984;DHT22;16737;50.932;6.780;2022-07-19T12:10:38;38.60;38.40
9984;DHT22;16737;50.932;6.780;2022-07-19T12:13:12;38.70;37.90
9984;DHT22;16737;50.932;6.780;2022-07-19T12:15:51;38.80;37.60
9984;DHT22;16737;50.932;6.780;2022-07-19T12:18:22;38.80;36.50
9984;DHT22;16737;50.932;6.780;2022-07-19T12:21:21;38.80;37.00
9984;DHT22;16737;50.932;6.780;2022-07-19T12:24:09;38.90;37.20
9984;DHT22;16737;50.932;6.780;2022-07-19T12:27:00;38.90;37.00
9984;DHT22;16737;50.932;6.780;2022-07-19T12:29:32;39.00;36.40
9984;DHT22;16737;50.932;6.780;2022-07-19T12:32:05;39.00;36.80
9984;DHT22;16737;50.932;6.780;2022-07-19T12:34:44;39.00;36.70
9984;DHT22;16737;50.932;6.780;2022-07-19T12:37:23;39.10;36.00
9984;DHT22;16737;50.932;6.780;2022-07-19T12:40:00;39.10;35.30
9984;DHT22;16737;50.932;6.780;2022-07-19T12:42:42;39.10;36.00
9984;DHT22;16737;50.932;6.780;2022-07-19T12:45:12;39.10;36.30
9984;DHT22;16737;50.932;6.780;2022-07-19T12:47:42;39.20;36.00
9984;DHT22;16737;50.932;6.780;2022-07-19T12:50:20;39.20;36.10
9984;DHT22;16737;50.932;6.780;2022-07-19T12:52:51;39.30;35.80
9984;DHT22;16737;50.932;6.780;2022-07-19T12:55:21;39.30;36.10
9984;DHT22;16737;50.932;6.780;2022-07-19T12:57:50;39.30;35.70
9984;DHT22;16737;50.932;6.780;2022-07-19T13:00:19;39.40;35.60
9984;DHT22;16737;50.932;6.780;2022-07-19T13:02:50;39.40;35.50
9984;DHT22;16737;50.932;6.780;2022-07-19T13:05:19;39.40;34.90
9984;DHT22;16737;50.932;6.780;2022-07-19T13:07:47;39.40;35.50
9984;DHT22;16737;50.932;6.780;2022-07-19T13:10:17;39.40;35.30
9984;DHT22;16737;50.932;6.780;2022-07-19T13:12:44;39.50;35.00
9984;DHT22;16737;50.932;6.780;2022-07-19T13:15:12;39.50;34.80
9984;DHT22;16737;50.932;6.780;2022-07-19T13:17:41;39.50;35.00
9984;DHT22;16737;50.932;6.780;2022-07-19T13:20:10;39.60;34.70
9984;DHT22;16737;50.932;6.780;2022-07-19T13:22:38;39.60;34.80
9984;DHT22;16737;50.932;6.780;2022-07-19T13:25:08;39.60;34.30
9984;DHT22;16737;50.932;6.780;2022-07-19T13:27:36;39.60;34.20
9984;DHT22;16737;50.932;6.780;2022-07-19T13:30:04;39.60;34.80
9984;DHT22;16737;50.932;6.780;2022-07-19T13:32:31;39.60;34.50
9984;DHT22;16737;50.932;6.780;2022-07-19T13:34:59;39.60;34.60
9984;DHT22;16737;50.932;6.780;2022-07-19T13:37:27;39.70;34.10
9984;DHT22;16737;50.932;6.780;2022-07-19T13:39:55;39.70;34.10
9984;DHT22;16737;50.932;6.780;2022-07-19T13:42:22;39.70;33.90
9984;DHT22;16737;50.932;6.780;2022-07-19T13:44:49;39.70;34.30
9984;DHT22;16737;50.932;6.780;2022-07-19T13:47:16;39.70;33.70
9984;DHT22;16737;50.932;6.780;2022-07-19T13:49:43;39.80;33.80
9984;DHT22;16737;50.932;6.780;2022-07-19T13:52:10;39.80;34.10
9984;DHT22;16737;50.932;6.780;2022-07-19T13:54:39;39.80;33.50
9984;DHT22;16737;50.932;6.780;2022-07-19T13:57:06;39.80;33.60
9984;DHT22;16737;50.932;6.780;2022-07-19T13:59:33;39.80;33.30
9984;DHT22;16737;50.932;6.780;2022-07-19T14:02:00;39.80;33.50
9984;DHT22;16737;50.932;6.780;2022-07-19T14:04:28;39.80;33.40
9984;DHT22;16737;50.932;6.780;2022-07-19T14:06:55;39.80;33.50
9984;DHT22;16737;50.932;6.780;2022-07-19T14:09:22;39.80;33.80
9984;DHT22;16737;50.932;6.780;2022-07-19T14:11:50;39.80;33.80
9984;DHT22;16737;50.932;6.780;2022-07-19T14:14:17;39.80;33.70
9984;DHT22;16737;50.932;6.780;2022-07-19T14:16:45;39.90;34.50
9984;DHT22;16737;50.932;6.780;2022-07-19T14:19:12;39.80;33.90
9984;DHT22;16737;50.932;6.780;2022-07-19T14:21:39;39.90;33.70
9984;DHT22;16737;50.932;6.780;2022-07-19T14:24:07;39.90;33.20
9984;DHT22;16737;50.932;6.780;2022-07-19T14:26:34;39.90;32.90
9984;DHT22;16737;50.932;6.780;2022-07-19T14:29:03;40.00;32.90
9984;DHT22;16737;50.932;6.780;2022-07-19T14:31:30;40.00;32.80
9984;DHT22;16737;50.932;6.780;2022-07-19T14:33:58;40.00;32.70
9984;DHT22;16737;50.932;6.780;2022-07-19T14:36:25;39.90;32.80
9984;DHT22;16737;50.932;6.780;2022-07-19T14:38:52;39.90;32.80
9984;DHT22;16737;50.932;6.780;2022-07-19T14:41:19;39.90;32.70
9984;DHT22;16737;50.932;6.780;2022-07-19T14:43:46;39.90;32.40
9984;DHT22;16737;50.932;6.780;2022-07-19T14:46:14;39.90;32.50
9984;DHT22;16737;50.932;6.780;2022-07-19T14:48:41;39.90;32.90
9984;DHT22;16737;50.932;6.780;2022-07-19T14:51:08;39.90;32.80
9984;DHT22;16737;50.932;6.780;2022-07-19T14:53:35;39.90;32.80
9984;DHT22;16737;50.932;6.780;2022-07-19T14:56:03;39.80;32.70
9984;DHT22;16737;50.932;6.780;2022-07-19T14:58:30;39.90;32.70
9984;DHT22;16737;50.932;6.780;2022-07-19T15:00:57;39.90;32.70
9984;DHT22;16737;50.932;6.780;2022-07-19T15:03:25;39.90;32.50
9984;DHT22;16737;50.932;6.780;2022-07-19T15:05:52;39.90;32.30
9984;DHT22;16737;50.932;6.780;2022-07-19T15:08:19;39.90;32.80
9984;DHT22;16737;50.932;6.780;2022-07-19T15:10:46;39.90;32.80
9984;DHT22;16737;50.932;6.780;2022-07-19T15:13:14;39.90;32.40
9984;DHT22;16737;50.932;6.780;2022-07-19T15:15:41;39.90;32.60
9984;DHT22;16737;50.932;6.780;2022-07-19T15:18:08;39.90;32.80
9984;DHT22;16737;50.932;6.780;2022-07-19T15:20:38;39.90;32.50
9984;DHT22;16737;50.932;6.780;2022-07-19T15:23:05;39.90;32.90
9984;DHT22;16737;50.932;6.780;2022-07-19T15:25:32;39.80;32.60
9984;DHT22;16737;50.932;6.780;2022-07-19T15:27:59;39.80;32.50
9984;DHT22;16737;50.932;6.780;2022-07-19T15:30:26;39.80;32.50
9984;DHT22;16737;50.932;6.780;2022-07-19T15:32:53;39.80;32.20
9984;DHT22;16737;50.932;6.780;2022-07-19T15:35:20;39.90;32.70
9984;DHT22;16737;50.932;6.780;2022-07-19T15:37:48;39.80;32.30
9984;DHT22;16737;50.932;6.780;2022-07-19T15:40:15;39.80;32.10
9984;DHT22;16737;50.932;6.780;2022-07-19T15:42:45;39.80;32.10
9984;DHT22;16737;50.932;6.780;2022-07-19T15:45:14;39.80;32.00
9984;DHT22;16737;50.932;6.780;2022-07-19T15:47:42;39.70;32.10
9984;DHT22;16737;50.932;6.780;2022-07-19T15:50:11;39.70;31.60
9984;DHT22;16737;50.932;6.780;2022-07-19T15:52:39;39.70;31.50
9984;DHT22;16737;50.932;6.780;2022-07-19T15:55:09;39.70;31.40
9984;DHT22;16737;50.932;6.780;2022-07-19T15:57:37;39.60;31.60